sensor_id;sensor_type;location;lat;lon;timestamp;P1;durP1;ratioP1;P2;durP2;ratioP2
5995;SDS011;3026;53.612;7.278;2023-08-06T00:02:20;4.07;;;3.63;;
5995;SDS011;3026;53.612;7.278;2023-08-06T00:04:47;4.33;;;3.93;;
5995;SDS011;3026;53.612;7.278;2023-08-06T00:07:14;5.87;;;3.73;;
5995;SDS011;3026;53.612;7.278;2023-08-06T00:09:41;4.67;;;3.83;;
5995;SDS011;3026;53.612;7.278;2023-08-06T00:12:08;5.20;;;3.97;;
5995;SDS011;3026;53.612;7.278;2023-08-06T00:14:38;4.27;;;3.87;;
5995;SDS011;3026;53.612;7.278;2023-08-06T00:17:05;4.77;;;4.27;;
5995;SDS011;3026;53.612;7.278;2023-08-06T00:19:33;4.07;;;3.67;;
5995;SDS011;3026;53.612;7.278;2023-08-06T00:22:00;5.30;;;4.37;;
5995;SDS011;3026;53.612;7.278;2023-08-06T00:24:28;5.07;;;4.47;;
5995;SDS011;3026;53.612;7.278;2023-08-06T00:26:55;4.77;;;4.37;;
5995;SDS011;3026;53.612;7.278;2023-08-06T00:29:22;4.50;;;3.57;;
5995;SDS011;3026;53.612;7.278;2023-08-06T00:31:49;6.77;;;4.00;;
5995;SDS011;3026;53.612;7.278;2023-08-06T00:34:16;6.07;;;4.30;;
5995;SDS011;3026;53.612;7.278;2023-08-06T00:36:45;5.50;;;4.33;;
5995;SDS011;3026;53.612;7.278;2023-08-06T00:39:12;10.70;;;4.27;;
5995;SDS011;3026;53.612;7.278;2023-08-06T00:41:41;4.30;;;3.90;;
5995;SDS011;3026;53.612;7.278;2023-08-06T00:44:08;5.40;;;4.20;;
5995;SDS011;3026;53.612;7.278;2023-08-06T00:46:35;6.03;;;4.10;;
5995;SDS011;3026;53.612;7.278;2023-08-06T00:49:02;4.53;;;4.13;;
5995;SDS011;3026;53.612;7.278;2023-08-06T00:51:30;4.90;;;4.40;;
5995;SDS011;3026;53.612;7.278;2023-08-06T00:54:00;5.30;;;3.73;;
5995;SDS011;3026;53.612;7.278;2023-08-06T00:56:28;5.63;;;4.20;;
5995;SDS011;3026;53.612;7.278;2023-08-06T00:58:58;4.30;;;3.90;;
5995;SDS011;3026;53.612;7.278;2023-08-06T01:01:25;5.33;;;3.97;;
5995;SDS011;3026;53.612;7.278;2023-08-06T01:03:52;5.03;;;4.17;;
5995;SDS011;3026;53.612;7.278;2023-08-06T01:06:21;5.03;;;4.20;;
5995;SDS011;3026;53.612;7.278;2023-08-06T01:08:58;4.50;;;4.10;;
5995;SDS011;3026;53.612;7.278;2023-08-06T01:11:30;4.03;;;3.60;;
5995;SDS011;3026;53.612;7.278;2023-08-06T01:14:06;4.90;;;3.83;;
5995;SDS011;3026;53.612;7.278;2023-08-06T01:16:38;4.60;;;4.20;;
5995;SDS011;3026;53.612;7.278;2023-08-06T01:19:15;5.10;;;4.00;;
5995;SDS011;3026;53.612;7.278;2023-08-06T01:21:44;4.07;;;3.40;;
5995;SDS011;3026;53.612;7.278;2023-08-06T01:24:13;5.67;;;4.40;;
5995;SDS011;3026;53.612;7.278;2023-08-06T01:26:44;4.40;;;3.60;;
5995;SDS011;3026;53.612;7.278;2023-08-06T01:29:18;7.07;;;4.00;;
5995;SDS011;3026;53.612;7.278;2023-08-06T01:31:50;5.20;;;4.10;;
5995;SDS011;3026;53.612;7.278;2023-08-06T01:34:21;6.70;;;3.67;;
5995;SDS011;3026;53.612;7.278;2023-08-06T01:36:54;4.07;;;3.67;;
5995;SDS011;3026;53.612;7.278;2023-08-06T01:39:22;4.47;;;3.27;;
5995;SDS011;3026;53.612;7.278;2023-08-06T01:41:50;5.40;;;3.73;;
5995;SDS011;3026;53.612;7.278;2023-08-06T01:44:17;5.40;;;4.30;;
5995;SDS011;3026;53.612;7.278;2023-08-06T01:46:47;6.37;;;3.70;;
5995;SDS011;3026;53.612;7.278;2023-08-06T01:49:14;5.70;;;3.97;;
5995;SDS011;3026;53.612;7.278;2023-08-06T01:51:41;8.00;;;4.43;;
5995;SDS011;3026;53.612;7.278;2023-08-06T01:54:09;6.63;;;4.57;;
5995;SDS011;3026;53.612;7.278;2023-08-06T01:56:36;4.70;;;4.30;;
5995;SDS011;3026;53.612;7.278;2023-08-06T01:59:03;4.70;;;4.07;;
5995;SDS011;3026;53.612;7.278;2023-08-06T02:01:32;6.37;;;3.90;;
5995;SDS011;3026;53.612;7.278;2023-08-06T02:03:59;4.37;;;3.97;;
5995;SDS011;3026;53.612;7.278;2023-08-06T02:06:26;6.87;;;4.30;;
5995;SDS011;3026;53.612;7.278;2023-08-06T02:08:53;4.50;;;3.87;;
5995;SDS011;3026;53.612;7.278;2023-08-06T02:11:25;4.73;;;4.10;;
5995;SDS011;3026;53.612;7.278;2023-08-06T02:13:51;4.43;;;3.87;;
5995;SDS011;3026;53.612;7.278;2023-08-06T02:16:19;4.63;;;4.20;;
5995;SDS011;3026;53.612;7.278;2023-08-06T02:18:46;5.70;;;4.20;;
5995;SDS011;3026;53.612;7.278;2023-08-06T02:21:13;5.80;;;4.53;;
5995;SDS011;3026;53.612;7.278;2023-08-06T02:23:43;5.50;;;4.40;;
5995;SDS011;3026;53.612;7.278;2023-08-06T02:26:09;6.57;;;4.70;;
5995;SDS011;3026;53.612;7.278;2023-08-06T02:28:39;5.40;;;4.40;;
5995;SDS011;3026;53.612;7.278;2023-08-06T02:31:06;4.60;;;4.20;;
5995;SDS011;3026;53.612;7.278;2023-08-06T02:33:33;9.87;;;4.40;;
5995;SDS011;3026;53.612;7.278;2023-08-06T02:36:02;7.37;;;4.63;;
5995;SDS011;3026;53.612;7.278;2023-08-06T02:38:33;6.77;;;4.93;;
5995;SDS011;3026;53.612;7.278;2023-08-06T02:41:03;6.07;;;4.67;;
5995;SDS011;3026;53.612;7.278;2023-08-06T02:43:30;5.57;;;4.80;;
5995;SDS011;3026;53.612;7.278;2023-08-06T02:45:59;5.33;;;4.60;;
5995;SDS011;3026;53.612;7.278;2023-08-06T02:48:28;9.20;;;4.50;;
5995;SDS011;3026;53.612;7.278;2023-08-06T02:50:56;6.10;;;4.50;;
5995;SDS011;3026;53.612;7.278;2023-08-06T02:53:26;5.23;;;4.70;;
5995;SDS011;3026;53.612;7.278;2023-08-06T02:55:53;6.57;;;4.87;;
5995;SDS011;3026;53.612;7.278;2023-08-06T02:58:20;5.30;;;4.73;;
5995;SDS011;3026;53.612;7.278;2023-08-06T03:01:01;7.47;;;4.90;;
5995;SDS011;3026;53.612;7.278;2023-08-06T03:03:29;6.47;;;4.73;;
5995;SDS011;3026;53.612;7.278;2023-08-06T03:05:59;4.83;;;4.40;;
5995;SDS011;3026;53.612;7.278;2023-08-06T03:08:26;5.50;;;5.00;;
5995;SDS011;3026;53.612;7.278;2023-08-06T03:10:56;5.33;;;4.33;;
5995;SDS011;3026;53.612;7.278;2023-08-06T03:13:23;8.37;;;4.97;;
5995;SDS011;3026;53.612;7.278;2023-08-06T03:15:54;8.00;;;4.57;;
5995;SDS011;3026;53.612;7.278;2023-08-06T03:18:23;6.67;;;4.77;;
5995;SDS011;3026;53.612;7.278;2023-08-06T03:20:51;6.20;;;4.53;;
5995;SDS011;3026;53.612;7.278;2023-08-06T03:23:18;5.90;;;5.10;;
5995;SDS011;3026;53.612;7.278;2023-08-06T03:25:49;5.97;;;4.50;;
5995;SDS011;3026;53.612;7.278;2023-08-06T03:28:22;6.27;;;4.80;;
5995;SDS011;3026;53.612;7.278;2023-08-06T03:30:59;8.47;;;4.63;;
5995;SDS011;3026;53.612;7.278;2023-08-06T03:33:37;5.27;;;4.63;;
5995;SDS011;3026;53.612;7.278;2023-08-06T03:36:13;7.37;;;4.47;;
5995;SDS011;3026;53.612;7.278;2023-08-06T03:38:40;8.97;;;4.63;;
5995;SDS011;3026;53.612;7.278;2023-08-06T03:41:08;6.80;;;4.33;;
5995;SDS011;3026;53.612;7.278;2023-08-06T03:43:34;5.63;;;4.57;;
5995;SDS011;3026;53.612;7.278;2023-08-06T03:46:01;5.80;;;4.80;;
5995;SDS011;3026;53.612;7.278;2023-08-06T03:48:28;5.83;;;4.67;;
5995;SDS011;3026;53.612;7.278;2023-08-06T03:50:57;4.33;;;3.93;;
5995;SDS011;3026;53.612;7.278;2023-08-06T03:53:26;8.17;;;4.43;;
5995;SDS011;3026;53.612;7.278;2023-08-06T03:55:53;4.90;;;4.27;;
5995;SDS011;3026;53.612;7.278;2023-08-06T03:58:21;9.17;;;5.20;;
5995;SDS011;3026;53.612;7.278;2023-08-06T04:00:48;6.63;;;5.00;;
5995;SDS011;3026;53.612;7.278;2023-08-06T04:03:15;6.90;;;4.87;;
5995;SDS011;3026;53.612;7.278;2023-08-06T04:05:42;6.70;;;5.23;;
5995;SDS011;3026;53.612;7.278;2023-08-06T04:08:12;5.50;;;4.30;;
5995;SDS011;3026;53.612;7.278;2023-08-06T04:10:41;4.93;;;4.40;;
5995;SDS011;3026;53.612;7.278;2023-08-06T04:13:08;5.50;;;4.63;;
5995;SDS011;3026;53.612;7.278;2023-08-06T04:15:38;4.60;;;4.20;;
5995;SDS011;3026;53.612;7.278;2023-08-06T04:18:05;5.37;;;4.50;;
5995;SDS011;3026;53.612;7.278;2023-08-06T04:20:32;7.20;;;4.77;;
5995;SDS011;3026;53.612;7.278;2023-08-06T04:22:59;6.47;;;4.73;;
5995;SDS011;3026;53.612;7.278;2023-08-06T04:25:34;6.60;;;4.80;;
5995;SDS011;3026;53.612;7.278;2023-08-06T04:28:01;6.47;;;4.90;;
5995;SDS011;3026;53.612;7.278;2023-08-06T04:30:27;6.80;;;5.10;;
5995;SDS011;3026;53.612;7.278;2023-08-06T04:32:56;6.20;;;4.67;;
5995;SDS011;3026;53.612;7.278;2023-08-06T04:35:23;6.43;;;4.73;;
5995;SDS011;3026;53.612;7.278;2023-08-06T04:37:58;8.60;;;4.83;;
5995;SDS011;3026;53.612;7.278;2023-08-06T04:40:28;5.03;;;4.30;;
5995;SDS011;3026;53.612;7.278;2023-08-06T04:42:56;7.87;;;4.27;;
5995;SDS011;3026;53.612;7.278;2023-08-06T04:45:23;7.43;;;5.27;;
5995;SDS011;3026;53.612;7.278;2023-08-06T04:47:51;7.67;;;4.73;;
5995;SDS011;3026;53.612;7.278;2023-08-06T04:50:19;5.40;;;4.33;;
5995;SDS011;3026;53.612;7.278;2023-08-06T04:52:48;7.53;;;4.70;;
5995;SDS011;3026;53.612;7.278;2023-08-06T04:55:15;5.77;;;4.70;;
5995;SDS011;3026;53.612;7.278;2023-08-06T04:57:41;6.47;;;4.53;;
5995;SDS011;3026;53.612;7.278;2023-08-06T05:00:10;8.93;;;5.10;;
5995;SDS011;3026;53.612;7.278;2023-08-06T05:02:38;5.37;;;4.30;;
5995;SDS011;3026;53.612;7.278;2023-08-06T05:05:05;5.83;;;4.50;;
5995;SDS011;3026;53.612;7.278;2023-08-06T05:07:32;6.43;;;4.60;;
5995;SDS011;3026;53.612;7.278;2023-08-06T05:09:59;5.83;;;4.17;;
5995;SDS011;3026;53.612;7.278;2023-08-06T05:12:26;7.53;;;4.60;;
5995;SDS011;3026;53.612;7.278;2023-08-06T05:14:53;8.83;;;4.70;;
5995;SDS011;3026;53.612;7.278;2023-08-06T05:17:22;5.63;;;4.73;;
5995;SDS011;3026;53.612;7.278;2023-08-06T05:19:49;3.87;;;3.53;;
5995;SDS011;3026;53.612;7.278;2023-08-06T05:22:18;7.33;;;4.60;;
5995;SDS011;3026;53.612;7.278;2023-08-06T05:24:48;4.83;;;4.30;;
5995;SDS011;3026;53.612;7.278;2023-08-06T05:27:18;7.10;;;4.63;;
5995;SDS011;3026;53.612;7.278;2023-08-06T05:29:45;4.83;;;4.37;;
5995;SDS011;3026;53.612;7.278;2023-08-06T05:32:12;6.67;;;4.83;;
5995;SDS011;3026;53.612;7.278;2023-08-06T05:34:41;7.07;;;5.37;;
5995;SDS011;3026;53.612;7.278;2023-08-06T05:37:07;6.40;;;5.27;;
5995;SDS011;3026;53.612;7.278;2023-08-06T05:39:37;7.77;;;5.43;;
5995;SDS011;3026;53.612;7.278;2023-08-06T05:42:04;7.43;;;4.63;;
5995;SDS011;3026;53.612;7.278;2023-08-06T05:44:32;6.83;;;5.10;;
5995;SDS011;3026;53.612;7.278;2023-08-06T05:46:59;7.47;;;5.23;;
5995;SDS011;3026;53.612;7.278;2023-08-06T05:49:27;6.80;;;5.10;;
5995;SDS011;3026;53.612;7.278;2023-08-06T05:51:56;6.47;;;4.90;;
5995;SDS011;3026;53.612;7.278;2023-08-06T05:54:23;6.40;;;5.07;;
5995;SDS011;3026;53.612;7.278;2023-08-06T05:56:50;9.23;;;4.87;;
5995;SDS011;3026;53.612;7.278;2023-08-06T05:59:17;6.70;;;5.53;;
5995;SDS011;3026;53.612;7.278;2023-08-06T06:01:44;5.93;;;4.90;;
5995;SDS011;3026;53.612;7.278;2023-08-06T06:04:11;5.50;;;4.97;;
5995;SDS011;3026;53.612;7.278;2023-08-06T06:06:38;6.83;;;4.90;;
5995;SDS011;3026;53.612;7.278;2023-08-06T06:09:10;8.53;;;5.43;;
5995;SDS011;3026;53.612;7.278;2023-08-06T06:11:39;7.03;;;4.77;;
5995;SDS011;3026;53.612;7.278;2023-08-06T06:14:11;7.23;;;5.00;;
5995;SDS011;3026;53.612;7.278;2023-08-06T06:16:38;5.07;;;4.40;;
5995;SDS011;3026;53.612;7.278;2023-08-06T06:19:07;8.67;;;5.30;;
5995;SDS011;3026;53.612;7.278;2023-08-06T06:21:37;5.17;;;4.37;;
5995;SDS011;3026;53.612;7.278;2023-08-06T06:24:07;5.87;;;4.80;;
5995;SDS011;3026;53.612;7.278;2023-08-06T06:26:37;6.13;;;4.60;;
5995;SDS011;3026;53.612;7.278;2023-08-06T06:29:05;9.63;;;5.03;;
5995;SDS011;3026;53.612;7.278;2023-08-06T06:31:32;5.83;;;4.80;;
5995;SDS011;3026;53.612;7.278;2023-08-06T06:34:03;6.37;;;4.93;;
5995;SDS011;3026;53.612;7.278;2023-08-06T06:36:33;8.57;;;4.97;;
5995;SDS011;3026;53.612;7.278;2023-08-06T06:39:03;5.50;;;4.43;;
5995;SDS011;3026;53.612;7.278;2023-08-06T06:41:32;5.67;;;4.53;;
5995;SDS011;3026;53.612;7.278;2023-08-06T06:43:59;5.80;;;4.70;;
5995;SDS011;3026;53.612;7.278;2023-08-06T06:46:26;12.23;;;5.00;;
5995;SDS011;3026;53.612;7.278;2023-08-06T06:48:53;8.10;;;4.33;;
5995;SDS011;3026;53.612;7.278;2023-08-06T06:51:23;4.23;;;3.77;;
5995;SDS011;3026;53.612;7.278;2023-08-06T06:53:50;6.07;;;4.17;;
5995;SDS011;3026;53.612;7.278;2023-08-06T06:56:17;8.87;;;4.90;;
5995;SDS011;3026;53.612;7.278;2023-08-06T06:58:45;4.13;;;3.73;;
5995;SDS011;3026;53.612;7.278;2023-08-06T07:01:12;5.57;;;4.47;;
5995;SDS011;3026;53.612;7.278;2023-08-06T07:03:39;4.27;;;3.40;;
5995;SDS011;3026;53.612;7.278;2023-08-06T07:06:12;6.73;;;3.40;;
5995;SDS011;3026;53.612;7.278;2023-08-06T07:08:40;3.70;;;3.20;;
5995;SDS011;3026;53.612;7.278;2023-08-06T07:11:07;6.20;;;3.87;;
5995;SDS011;3026;53.612;7.278;2023-08-06T07:13:37;3.50;;;3.20;;
5995;SDS011;3026;53.612;7.278;2023-08-06T07:16:05;4.03;;;3.63;;
5995;SDS011;3026;53.612;7.278;2023-08-06T07:18:32;3.43;;;3.13;;
5995;SDS011;3026;53.612;7.278;2023-08-06T07:20:59;4.10;;;3.70;;
5995;SDS011;3026;53.612;7.278;2023-08-06T07:23:26;5.60;;;3.53;;
5995;SDS011;3026;53.612;7.278;2023-08-06T07:25:53;4.00;;;3.23;;
5995;SDS011;3026;53.612;7.278;2023-08-06T07:28:20;3.60;;;3.30;;
5995;SDS011;3026;53.612;7.278;2023-08-06T07:30:47;3.53;;;3.23;;
5995;SDS011;3026;53.612;7.278;2023-08-06T07:33:16;4.97;;;2.87;;
5995;SDS011;3026;53.612;7.278;2023-08-06T07:35:43;2.83;;;2.53;;
5995;SDS011;3026;53.612;7.278;2023-08-06T07:38:10;3.93;;;2.50;;
5995;SDS011;3026;53.612;7.278;2023-08-06T07:40:37;4.77;;;3.23;;
5995;SDS011;3026;53.612;7.278;2023-08-06T07:43:05;4.20;;;3.07;;
5995;SDS011;3026;53.612;7.278;2023-08-06T07:45:32;3.73;;;3.27;;
5995;SDS011;3026;53.612;7.278;2023-08-06T07:48:00;4.17;;;3.77;;
5995;SDS011;3026;53.612;7.278;2023-08-06T07:50:29;3.73;;;3.33;;
5995;SDS011;3026;53.612;7.278;2023-08-06T07:52:56;3.97;;;3.07;;
5995;SDS011;3026;53.612;7.278;2023-08-06T07:55:23;4.03;;;3.13;;
5995;SDS011;3026;53.612;7.278;2023-08-06T07:57:50;3.53;;;3.20;;
5995;SDS011;3026;53.612;7.278;2023-08-06T08:00:17;3.80;;;2.97;;
5995;SDS011;3026;53.612;7.278;2023-08-06T08:02:44;3.20;;;2.73;;
5995;SDS011;3026;53.612;7.278;2023-08-06T08:05:11;3.90;;;3.13;;
5995;SDS011;3026;53.612;7.278;2023-08-06T08:07:39;3.43;;;2.70;;
5995;SDS011;3026;53.612;7.278;2023-08-06T08:10:07;3.10;;;2.80;;
5995;SDS011;3026;53.612;7.278;2023-08-06T08:12:34;5.37;;;3.53;;
5995;SDS011;3026;53.612;7.278;2023-08-06T08:15:01;3.50;;;3.20;;
5995;SDS011;3026;53.612;7.278;2023-08-06T08:17:28;3.90;;;3.00;;
5995;SDS011;3026;53.612;7.278;2023-08-06T08:19:55;4.10;;;3.30;;
5995;SDS011;3026;53.612;7.278;2023-08-06T08:22:22;4.20;;;3.13;;
5995;SDS011;3026;53.612;7.278;2023-08-06T08:24:51;4.93;;;3.10;;
5995;SDS011;3026;53.612;7.278;2023-08-06T08:27:18;6.23;;;3.40;;
5995;SDS011;3026;53.612;7.278;2023-08-06T08:29:45;4.37;;;3.53;;
5995;SDS011;3026;53.612;7.278;2023-08-06T08:32:12;4.70;;;2.80;;
5995;SDS011;3026;53.612;7.278;2023-08-06T08:34:39;5.67;;;2.83;;
5995;SDS011;3026;53.612;7.278;2023-08-06T08:37:06;3.03;;;2.77;;
5995;SDS011;3026;53.612;7.278;2023-08-06T08:39:33;2.80;;;2.60;;
5995;SDS011;3026;53.612;7.278;2023-08-06T08:42:02;2.50;;;2.30;;
5995;SDS011;3026;53.612;7.278;2023-08-06T08:44:32;2.30;;;2.13;;
5995;SDS011;3026;53.612;7.278;2023-08-06T08:47:01;2.53;;;2.33;;
5995;SDS011;3026;53.612;7.278;2023-08-06T08:49:29;2.73;;;2.20;;
5995;SDS011;3026;53.612;7.278;2023-08-06T08:51:57;2.83;;;2.10;;
5995;SDS011;3026;53.612;7.278;2023-08-06T08:54:26;3.77;;;2.00;;
5995;SDS011;3026;53.612;7.278;2023-08-06T08:56:55;1.97;;;1.77;;
5995;SDS011;3026;53.612;7.278;2023-08-06T08:59:23;1.80;;;1.70;;
5995;SDS011;3026;53.612;7.278;2023-08-06T09:01:50;4.37;;;2.07;;
5995;SDS011;3026;53.612;7.278;2023-08-06T09:04:18;2.30;;;1.93;;
5995;SDS011;3026;53.612;7.278;2023-08-06T09:06:46;2.37;;;1.80;;
5995;SDS011;3026;53.612;7.278;2023-08-06T09:09:17;5.97;;;2.60;;
5995;SDS011;3026;53.612;7.278;2023-08-06T09:11:50;1.57;;;1.30;;
5995;SDS011;3026;53.612;7.278;2023-08-06T09:14:18;1.87;;;1.60;;
5995;SDS011;3026;53.612;7.278;2023-08-06T09:16:46;1.40;;;1.30;;
5995;SDS011;3026;53.612;7.278;2023-08-06T09:19:14;1.50;;;1.20;;
5995;SDS011;3026;53.612;7.278;2023-08-06T09:21:42;1.67;;;1.43;;
5995;SDS011;3026;53.612;7.278;2023-08-06T09:24:09;1.50;;;1.40;;
5995;SDS011;3026;53.612;7.278;2023-08-06T09:26:37;2.47;;;1.60;;
5995;SDS011;3026;53.612;7.278;2023-08-06T09:29:07;1.50;;;1.40;;
5995;SDS011;3026;53.612;7.278;2023-08-06T09:31:40;1.70;;;1.60;;
5995;SDS011;3026;53.612;7.278;2023-08-06T09:34:14;2.23;;;1.50;;
5995;SDS011;3026;53.612;7.278;2023-08-06T09:36:42;2.00;;;1.47;;
5995;SDS011;3026;53.612;7.278;2023-08-06T09:39:13;1.90;;;1.70;;
5995;SDS011;3026;53.612;7.278;2023-08-06T09:41:41;2.57;;;1.60;;
5995;SDS011;3026;53.612;7.278;2023-08-06T09:44:13;1.37;;;1.30;;
5995;SDS011;3026;53.612;7.278;2023-08-06T09:46:47;1.73;;;1.50;;
5995;SDS011;3026;53.612;7.278;2023-08-06T09:49:16;1.43;;;1.33;;
5995;SDS011;3026;53.612;7.278;2023-08-06T09:51:44;1.63;;;1.53;;
5995;SDS011;3026;53.612;7.278;2023-08-06T09:54:12;1.40;;;1.30;;
5995;SDS011;3026;53.612;7.278;2023-08-06T09:56:39;2.40;;;1.50;;
5995;SDS011;3026;53.612;7.278;2023-08-06T09:59:07;1.47;;;1.37;;
5995;SDS011;3026;53.612;7.278;2023-08-06T10:01:34;4.70;;;3.93;;
5995;SDS011;3026;53.612;7.278;2023-08-06T10:04:02;2.43;;;2.07;;
5995;SDS011;3026;53.612;7.278;2023-08-06T10:06:33;2.20;;;1.90;;
5995;SDS011;3026;53.612;7.278;2023-08-06T10:12:03;1.80;;;1.70;;
5995;SDS011;3026;53.612;7.278;2023-08-06T10:15:20;2.57;;;1.90;;
5995;SDS011;3026;53.612;7.278;2023-08-06T10:17:51;2.47;;;2.00;;
5995;SDS011;3026;53.612;7.278;2023-08-06T10:20:22;1.97;;;1.83;;
5995;SDS011;3026;53.612;7.278;2023-08-06T10:23:01;1.90;;;1.80;;
5995;SDS011;3026;53.612;7.278;2023-08-06T10:25:32;1.87;;;1.63;;
5995;SDS011;3026;53.612;7.278;2023-08-06T10:28:07;2.07;;;1.90;;
5995;SDS011;3026;53.612;7.278;2023-08-06T10:30:41;1.80;;;1.70;;
5995;SDS011;3026;53.612;7.278;2023-08-06T10:33:09;3.13;;;1.60;;
5995;SDS011;3026;53.612;7.278;2023-08-06T10:35:37;1.80;;;1.70;;
5995;SDS011;3026;53.612;7.278;2023-08-06T10:38:13;2.10;;;1.60;;
5995;SDS011;3026;53.612;7.278;2023-08-06T10:40:48;1.90;;;1.73;;
5995;SDS011;3026;53.612;7.278;2023-08-06T10:46:03;1.57;;;1.47;;
5995;SDS011;3026;53.612;7.278;2023-08-06T10:48:36;2.93;;;1.50;;
5995;SDS011;3026;53.612;7.278;2023-08-06T10:51:07;3.40;;;1.30;;
5995;SDS011;3026;53.612;7.278;2023-08-06T10:53:36;1.90;;;1.53;;
5995;SDS011;3026;53.612;7.278;2023-08-06T10:56:11;1.77;;;1.60;;
5995;SDS011;3026;53.612;7.278;2023-08-06T10:58:41;1.83;;;1.50;;
5995;SDS011;3026;53.612;7.278;2023-08-06T11:01:08;8.97;;;8.07;;
5995;SDS011;3026;53.612;7.278;2023-08-06T11:03:36;3.37;;;1.77;;
5995;SDS011;3026;53.612;7.278;2023-08-06T11:06:04;1.47;;;1.37;;
5995;SDS011;3026;53.612;7.278;2023-08-06T11:08:34;2.73;;;1.43;;
5995;SDS011;3026;53.612;7.278;2023-08-06T11:11:09;2.33;;;1.33;;
5995;SDS011;3026;53.612;7.278;2023-08-06T11:13:38;1.40;;;1.30;;
5995;SDS011;3026;53.612;7.278;2023-08-06T11:16:06;4.87;;;1.40;;
5995;SDS011;3026;53.612;7.278;2023-08-06T11:18:33;1.83;;;1.30;;
5995;SDS011;3026;53.612;7.278;2023-08-06T11:21:01;1.80;;;1.63;;
5995;SDS011;3026;53.612;7.278;2023-08-06T11:23:29;1.43;;;1.33;;
5995;SDS011;3026;53.612;7.278;2023-08-06T11:25:56;2.57;;;1.40;;
5995;SDS011;3026;53.612;7.278;2023-08-06T11:28:25;1.50;;;1.27;;
5995;SDS011;3026;53.612;7.278;2023-08-06T11:30:52;2.60;;;1.43;;
5995;SDS011;3026;53.612;7.278;2023-08-06T11:33:22;2.20;;;1.30;;
5995;SDS011;3026;53.612;7.278;2023-08-06T11:35:51;2.30;;;1.27;;
5995;SDS011;3026;53.612;7.278;2023-08-06T11:38:19;1.83;;;1.73;;
5995;SDS011;3026;53.612;7.278;2023-08-06T11:40:46;3.83;;;1.67;;
5995;SDS011;3026;53.612;7.278;2023-08-06T11:43:14;3.53;;;1.30;;
5995;SDS011;3026;53.612;7.278;2023-08-06T11:45:44;4.00;;;1.40;;
5995;SDS011;3026;53.612;7.278;2023-08-06T11:48:11;2.03;;;1.57;;
5995;SDS011;3026;53.612;7.278;2023-08-06T11:50:41;3.43;;;1.93;;
5995;SDS011;3026;53.612;7.278;2023-08-06T11:53:11;1.73;;;1.63;;
5995;SDS011;3026;53.612;7.278;2023-08-06T11:55:41;3.67;;;1.37;;
5995;SDS011;3026;53.612;7.278;2023-08-06T11:58:11;1.43;;;1.23;;
5995;SDS011;3026;53.612;7.278;2023-08-06T12:00:40;1.40;;;1.20;;
5995;SDS011;3026;53.612;7.278;2023-08-06T12:03:11;1.70;;;1.60;;
5995;SDS011;3026;53.612;7.278;2023-08-06T12:05:38;2.13;;;1.60;;
5995;SDS011;3026;53.612;7.278;2023-08-06T12:08:05;1.50;;;1.40;;
5995;SDS011;3026;53.612;7.278;2023-08-06T12:10:33;1.50;;;1.40;;
5995;SDS011;3026;53.612;7.278;2023-08-06T12:13:00;1.70;;;1.60;;
5995;SDS011;3026;53.612;7.278;2023-08-06T12:15:27;2.10;;;1.70;;
5995;SDS011;3026;53.612;7.278;2023-08-06T12:17:54;1.50;;;1.40;;
5995;SDS011;3026;53.612;7.278;2023-08-06T12:20:23;1.50;;;1.40;;
5995;SDS011;3026;53.612;7.278;2023-08-06T12:22:50;2.07;;;1.57;;
5995;SDS011;3026;53.612;7.278;2023-08-06T12:25:18;1.67;;;1.57;;
5995;SDS011;3026;53.612;7.278;2023-08-06T12:27:48;2.13;;;1.93;;
5995;SDS011;3026;53.612;7.278;2023-08-06T12:30:17;1.53;;;1.40;;
5995;SDS011;3026;53.612;7.278;2023-08-06T12:32:47;1.30;;;1.20;;
5995;SDS011;3026;53.612;7.278;2023-08-06T12:35:18;2.07;;;1.70;;
5995;SDS011;3026;53.612;7.278;2023-08-06T12:37:47;1.50;;;1.40;;
5995;SDS011;3026;53.612;7.278;2023-08-06T12:40:18;2.13;;;1.70;;
5995;SDS011;3026;53.612;7.278;2023-08-06T12:42:46;1.70;;;1.60;;
5995;SDS011;3026;53.612;7.278;2023-08-06T12:45:14;3.07;;;1.37;;
5995;SDS011;3026;53.612;7.278;2023-08-06T12:47:41;1.47;;;1.30;;
5995;SDS011;3026;53.612;7.278;2023-08-06T12:50:08;1.70;;;1.60;;
5995;SDS011;3026;53.612;7.278;2023-08-06T12:52:36;3.00;;;1.90;;
5995;SDS011;3026;53.612;7.278;2023-08-06T12:55:05;3.00;;;2.10;;
5995;SDS011;3026;53.612;7.278;2023-08-06T12:57:32;2.30;;;2.10;;
5995;SDS011;3026;53.612;7.278;2023-08-06T13:00:00;1.70;;;1.57;;
5995;SDS011;3026;53.612;7.278;2023-08-06T13:02:27;2.73;;;1.60;;
5995;SDS011;3026;53.612;7.278;2023-08-06T13:04:55;1.97;;;1.73;;
5995;SDS011;3026;53.612;7.278;2023-08-06T13:07:22;2.03;;;1.70;;
5995;SDS011;3026;53.612;7.278;2023-08-06T13:09:48;1.60;;;1.50;;
5995;SDS011;3026;53.612;7.278;2023-08-06T13:12:17;1.60;;;1.50;;
5995;SDS011;3026;53.612;7.278;2023-08-06T13:14:45;2.50;;;1.70;;
5995;SDS011;3026;53.612;7.278;2023-08-06T13:17:12;3.97;;;1.57;;
5995;SDS011;3026;53.612;7.278;2023-08-06T13:19:39;2.40;;;1.50;;
5995;SDS011;3026;53.612;7.278;2023-08-06T13:22:23;2.07;;;1.40;;
5995;SDS011;3026;53.612;7.278;2023-08-06T13:24:53;1.90;;;1.50;;
5995;SDS011;3026;53.612;7.278;2023-08-06T13:27:31;1.37;;;1.27;;
5995;SDS011;3026;53.612;7.278;2023-08-06T13:30:00;1.40;;;1.30;;
5995;SDS011;3026;53.612;7.278;2023-08-06T13:32:40;1.67;;;1.57;;
5995;SDS011;3026;53.612;7.278;2023-08-06T13:35:24;2.97;;;1.30;;
5995;SDS011;3026;53.612;7.278;2023-08-06T13:37:52;1.90;;;1.27;;
5995;SDS011;3026;53.612;7.278;2023-08-06T13:40:21;1.67;;;1.43;;
5995;SDS011;3026;53.612;7.278;2023-08-06T13:42:52;1.60;;;1.50;;
5995;SDS011;3026;53.612;7.278;2023-08-06T13:45:22;1.73;;;1.50;;
5995;SDS011;3026;53.612;7.278;2023-08-06T13:48:00;1.40;;;1.30;;
5995;SDS011;3026;53.612;7.278;2023-08-06T13:50:29;1.47;;;1.33;;
5995;SDS011;3026;53.612;7.278;2023-08-06T13:52:57;1.97;;;1.50;;
5995;SDS011;3026;53.612;7.278;2023-08-06T13:55:28;2.07;;;1.30;;
5995;SDS011;3026;53.612;7.278;2023-08-06T14:00:50;1.60;;;1.50;;
5995;SDS011;3026;53.612;7.278;2023-08-06T14:03:21;2.80;;;1.70;;
5995;SDS011;3026;53.612;7.278;2023-08-06T14:05:48;1.63;;;1.53;;
5995;SDS011;3026;53.612;7.278;2023-08-06T14:08:20;1.67;;;1.23;;
5995;SDS011;3026;53.612;7.278;2023-08-06T14:11:08;2.53;;;1.50;;
5995;SDS011;3026;53.612;7.278;2023-08-06T14:13:37;1.83;;;1.50;;
5995;SDS011;3026;53.612;7.278;2023-08-06T14:16:05;2.57;;;1.50;;
5995;SDS011;3026;53.612;7.278;2023-08-06T14:18:33;1.57;;;1.47;;
5995;SDS011;3026;53.612;7.278;2023-08-06T14:21:03;1.40;;;1.30;;
5995;SDS011;3026;53.612;7.278;2023-08-06T14:23:32;1.67;;;1.40;;
5995;SDS011;3026;53.612;7.278;2023-08-06T14:26:04;1.17;;;1.07;;
5995;SDS011;3026;53.612;7.278;2023-08-06T14:28:31;1.73;;;1.50;;
5995;SDS011;3026;53.612;7.278;2023-08-06T14:31:01;3.00;;;1.77;;
5995;SDS011;3026;53.612;7.278;2023-08-06T14:33:28;2.43;;;1.63;;
5995;SDS011;3026;53.612;7.278;2023-08-06T14:38:32;1.40;;;1.30;;
5995;SDS011;3026;53.612;7.278;2023-08-06T14:41:15;1.63;;;1.30;;
5995;SDS011;3026;53.612;7.278;2023-08-06T14:43:43;1.53;;;1.40;;
5995;SDS011;3026;53.612;7.278;2023-08-06T14:46:12;2.40;;;1.27;;
5995;SDS011;3026;53.612;7.278;2023-08-06T14:48:41;3.07;;;1.97;;
5995;SDS011;3026;53.612;7.278;2023-08-06T14:51:09;2.53;;;1.30;;
5995;SDS011;3026;53.612;7.278;2023-08-06T14:53:37;4.20;;;1.40;;
5995;SDS011;3026;53.612;7.278;2023-08-06T14:56:07;1.97;;;1.70;;
5995;SDS011;3026;53.612;7.278;2023-08-06T14:58:34;3.03;;;1.50;;
5995;SDS011;3026;53.612;7.278;2023-08-06T15:01:01;1.50;;;1.40;;
5995;SDS011;3026;53.612;7.278;2023-08-06T15:03:29;2.33;;;1.80;;
5995;SDS011;3026;53.612;7.278;2023-08-06T15:05:57;1.70;;;1.60;;
5995;SDS011;3026;53.612;7.278;2023-08-06T15:08:28;1.70;;;1.40;;
5995;SDS011;3026;53.612;7.278;2023-08-06T15:10:55;1.60;;;1.50;;
5995;SDS011;3026;53.612;7.278;2023-08-06T15:13:23;2.27;;;1.70;;
5995;SDS011;3026;53.612;7.278;2023-08-06T15:15:53;2.17;;;1.63;;
5995;SDS011;3026;53.612;7.278;2023-08-06T15:18:23;1.60;;;1.20;;
5995;SDS011;3026;53.612;7.278;2023-08-06T15:20:51;1.43;;;1.33;;
5995;SDS011;3026;53.612;7.278;2023-08-06T15:23:18;2.47;;;1.50;;
5995;SDS011;3026;53.612;7.278;2023-08-06T15:25:46;3.53;;;1.40;;
5995;SDS011;3026;53.612;7.278;2023-08-06T15:28:14;2.33;;;1.50;;
5995;SDS011;3026;53.612;7.278;2023-08-06T15:30:41;1.77;;;1.40;;
5995;SDS011;3026;53.612;7.278;2023-08-06T15:33:15;3.10;;;1.30;;
5995;SDS011;3026;53.612;7.278;2023-08-06T15:35:42;1.87;;;1.60;;
5995;SDS011;3026;53.612;7.278;2023-08-06T15:38:10;1.90;;;1.70;;